sensor_id;sensor_type;location;lat;lon;timestamp;pressure;altitude;pressure_sealevel;temperature;humidity
6413;BME280;3239;48.714;9.472;2023-03-15T00:02:06;98004.72;;;2.35;100.00
6413;BME280;3239;48.714;9.472;2023-03-15T00:04:32;98020.75;;;2.38;100.00
6413;BME280;3239;48.714;9.472;2023-03-15T00:06:58;98024.91;;;2.39;100.00
6413;BME280;3239;48.714;9.472;2023-03-15T00:09:24;98030.97;;;2.49;100.00
6413;BME280;3239;48.714;9.472;2023-03-15T00:11:51;98029.53;;;2.33;100.00
6413;BME280;3239;48.714;9.472;2023-03-15T00:14:19;98036.69;;;2.36;100.00
6413;BME280;3239;48.714;9.472;2023-03-15T00:16:45;98048.06;;;2.40;100.00
6413;BME280;3239;48.714;9.472;2023-03-15T00:19:12;98047.03;;;2.38;100.00
6413;BME280;3239;48.714;9.472;2023-03-15T00:21:38;98055.00;;;2.27;100.00
6413;BME280;3239;48.714;9.472;2023-03-15T00:24:05;98072.41;;;2.26;100.00
6413;BME280;3239;48.714;9.472;2023-03-15T00:26:31;98081.84;;;2.16;100.00
6413;BME280;3239;48.714;9.472;2023-03-15T00:28:57;98071.03;;;2.16;100.00
6413;BME280;3239;48.714;9.472;2023-03-15T00:31:24;98090.50;;;2.20;100.00
6413;BME280;3239;48.714;9.472;2023-03-15T00:33:51;98101.41;;;2.25;100.00
6413;BME280;3239;48.714;9.472;2023-03-15T00:36:19;98116.06;;;2.19;100.00
6413;BME280;3239;48.714;9.472;2023-03-15T00:38:50;98118.72;;;2.33;100.00
6413;BME280;3239;48.714;9.472;2023-03-15T00:41:18;98118.59;;;2.08;100.00
6413;BME280;3239;48.714;9.472;2023-03-15T00:43:45;98137.13;;;2.15;100.00
6413;BME280;3239;48.714;9.472;2023-03-15T00:46:12;98142.97;;;2.13;100.00
6413;BME280;3239;48.714;9.472;2023-03-15T00:48:38;98142.97;;;2.13;100.00
6413;BME280;3239;48.714;9.472;2023-03-15T00:51:11;98156.50;;;2.28;100.00
6413;BME280;3239;48.714;9.472;2023-03-15T00:53:41;98170.22;;;2.24;100.00
6413;BME280;3239;48.714;9.472;2023-03-15T00:56:11;98175.69;;;2.30;100.00
6413;BME280;3239;48.714;9.472;2023-03-15T00:58:38;98175.50;;;2.33;100.00
6413;BME280;3239;48.714;9.472;2023-03-15T01:01:23;98173.25;;;2.32;100.00
6413;BME280;3239;48.714;9.472;2023-03-15T01:03:49;98184.53;;;2.45;100.00
6413;BME280;3239;48.714;9.472;2023-03-15T01:06:19;98190.97;;;2.33;100.00
6413;BME280;3239;48.714;9.472;2023-03-15T01:08:46;98201.22;;;2.29;100.00
6413;BME280;3239;48.714;9.472;2023-03-15T01:11:20;98199.53;;;2.31;100.00
6413;BME280;3239;48.714;9.472;2023-03-15T01:13:50;98211.09;;;2.32;100.00
6413;BME280;3239;48.714;9.472;2023-03-15T01:16:16;98205.50;;;2.21;100.00
6413;BME280;3239;48.714;9.472;2023-03-15T01:18:43;98218.84;;;2.39;100.00
6413;BME280;3239;48.714;9.472;2023-03-15T01:21:11;98208.22;;;2.06;100.00
6413;BME280;3239;48.714;9.472;2023-03-15T01:23:38;98234.41;;;2.00;100.00
6413;BME280;3239;48.714;9.472;2023-03-15T01:26:07;98227.31;;;2.17;100.00
6413;BME280;3239;48.714;9.472;2023-03-15T01:28:34;98237.59;;;2.28;100.00
6413;BME280;3239;48.714;9.472;2023-03-15T01:31:00;98237.38;;;2.31;100.00
6413;BME280;3239;48.714;9.472;2023-03-15T01:33:26;98246.63;;;2.25;100.00
6413;BME280;3239;48.714;9.472;2023-03-15T01:36:05;98249.03;;;2.37;100.00
6413;BME280;3239;48.714;9.472;2023-03-15T01:38:32;98262.44;;;2.32;100.00
6413;BME280;3239;48.714;9.472;2023-03-15T01:40:58;98259.00;;;2.31;100.00
6413;BME280;3239;48.714;9.472;2023-03-15T01:43:26;98269.16;;;2.07;100.00
6413;BME280;3239;48.714;9.472;2023-03-15T01:46:29;98275.31;;;2.37;100.00
6413;BME280;3239;48.714;9.472;2023-03-15T01:49:16;98286.03;;;2.46;100.00
6413;BME280;3239;48.714;9.472;2023-03-15T01:52:05;98278.50;;;2.50;100.00
6413;BME280;3239;48.714;9.472;2023-03-15T01:54:38;98286.13;;;2.37;100.00
6413;BME280;3239;48.714;9.472;2023-03-15T01:57:21;98289.28;;;2.21;100.00
6413;BME280;3239;48.714;9.472;2023-03-15T02:00:16;98295.19;;;2.34;100.00
6413;BME280;3239;48.714;9.472;2023-03-15T02:02:59;98298.34;;;2.47;100.00
6413;BME280;3239;48.714;9.472;2023-03-15T02:05:32;98295.56;;;2.56;100.00
6413;BME280;3239;48.714;9.472;2023-03-15T02:08:01;98303.78;;;2.61;100.00
6413;BME280;3239;48.714;9.472;2023-03-15T02:10:45;98288.56;;;2.64;100.00
6413;BME280;3239;48.714;9.472;2023-03-15T02:13:17;98296.00;;;2.69;100.00
6413;BME280;3239;48.714;9.472;2023-03-15T02:15:43;98308.72;;;2.77;100.00
6413;BME280;3239;48.714;9.472;2023-03-15T02:18:12;98296.56;;;2.73;100.00
6413;BME280;3239;48.714;9.472;2023-03-15T02:21:04;98298.25;;;2.70;100.00
6413;BME280;3239;48.714;9.472;2023-03-15T02:23:32;98293.31;;;2.69;100.00
6413;BME280;3239;48.714;9.472;2023-03-15T02:26:29;98303.00;;;2.75;100.00
6413;BME280;3239;48.714;9.472;2023-03-15T02:28:57;98295.25;;;2.83;100.00
6413;BME280;3239;48.714;9.472;2023-03-15T02:31:24;98298.72;;;2.83;100.00
6413;BME280;3239;48.714;9.472;2023-03-15T02:33:51;98290.50;;;2.78;100.00
6413;BME280;3239;48.714;9.472;2023-03-15T02:36:23;98300.19;;;2.84;100.00
6413;BME280;3239;48.714;9.472;2023-03-15T02:38:50;98293.09;;;2.87;100.00
6413;BME280;3239;48.714;9.472;2023-03-15T02:41:39;98291.25;;;2.78;100.00
6413;BME280;3239;48.714;9.472;2023-03-15T02:44:34;98291.44;;;2.75;100.00
6413;BME280;3239;48.714;9.472;2023-03-15T02:47:24;98287.63;;;2.67;100.00
6413;BME280;3239;48.714;9.472;2023-03-15T02:49:52;98282.88;;;2.62;100.00
6413;BME280;3239;48.714;9.472;2023-03-15T02:52:19;98291.38;;;2.55;100.00
6413;BME280;3239;48.714;9.472;2023-03-15T02:54:45;98287.53;;;2.47;100.00
6413;BME280;3239;48.714;9.472;2023-03-15T02:57:16;98296.56;;;2.29;100.00
6413;BME280;3239;48.714;9.472;2023-03-15T02:59:43;98302.16;;;2.26;100.00
6413;BME280;3239;48.714;9.472;2023-03-15T03:02:10;98300.97;;;2.27;100.00
6413;BME280;3239;48.714;9.472;2023-03-15T03:04:37;98311.56;;;2.16;100.00
6413;BME280;3239;48.714;9.472;2023-03-15T03:07:03;98311.94;;;2.09;100.00
6413;BME280;3239;48.714;9.472;2023-03-15T03:09:29;98318.53;;;2.08;100.00
6413;BME280;3239;48.714;9.472;2023-03-15T03:11:55;98322.91;;;2.05;100.00
6413;BME280;3239;48.714;9.472;2023-03-15T03:14:21;98324.00;;;1.99;100.00
6413;BME280;3239;48.714;9.472;2023-03-15T03:16:49;98332.75;;;1.94;100.00
6413;BME280;3239;48.714;9.472;2023-03-15T03:19:16;98341.31;;;1.92;100.00
6413;BME280;3239;48.714;9.472;2023-03-15T03:21:41;98352.47;;;1.85;100.00
6413;BME280;3239;48.714;9.472;2023-03-15T03:24:08;98347.63;;;1.75;100.00
6413;BME280;3239;48.714;9.472;2023-03-15T03:26:34;98353.97;;;1.63;100.00
6413;BME280;3239;48.714;9.472;2023-03-15T03:29:03;98363.97;;;1.71;100.00
6413;BME280;3239;48.714;9.472;2023-03-15T03:31:30;98375.97;;;1.70;100.00
6413;BME280;3239;48.714;9.472;2023-03-15T03:33:59;98366.28;;;1.64;100.00
6413;BME280;3239;48.714;9.472;2023-03-15T03:36:25;98379.50;;;1.62;100.00
6413;BME280;3239;48.714;9.472;2023-03-15T03:38:52;98384.31;;;1.58;100.00
6413;BME280;3239;48.714;9.472;2023-03-15T03:41:19;98385.69;;;1.53;100.00
6413;BME280;3239;48.714;9.472;2023-03-15T03:43:46;98392.56;;;1.54;100.00
6413;BME280;3239;48.714;9.472;2023-03-15T03:46:11;98407.28;;;1.53;100.00
6413;BME280;3239;48.714;9.472;2023-03-15T03:48:37;98402.69;;;1.45;100.00
6413;BME280;3239;48.714;9.472;2023-03-15T03:51:03;98408.88;;;1.36;100.00
6413;BME280;3239;48.714;9.472;2023-03-15T03:53:29;98407.81;;;1.43;100.00
6413;BME280;3239;48.714;9.472;2023-03-15T03:55:55;98418.00;;;1.39;100.00
6413;BME280;3239;48.714;9.472;2023-03-15T03:58:21;98407.41;;;1.26;100.00
6413;BME280;3239;48.714;9.472;2023-03-15T04:00:47;98417.13;;;1.33;100.00
6413;BME280;3239;48.714;9.472;2023-03-15T04:03:13;98429.59;;;1.30;100.00
6413;BME280;3239;48.714;9.472;2023-03-15T04:05:39;98428.53;;;1.28;100.00
6413;BME280;3239;48.714;9.472;2023-03-15T04:08:06;98437.09;;;1.26;100.00
6413;BME280;3239;48.714;9.472;2023-03-15T04:10:32;98443.56;;;1.20;100.00
6413;BME280;3239;48.714;9.472;2023-03-15T04:12:59;98443.44;;;1.14;100.00
6413;BME280;3239;48.714;9.472;2023-03-15T04:15:25;98443.44;;;1.14;100.00
6413;BME280;3239;48.714;9.472;2023-03-15T04:17:52;98441.47;;;1.15;100.00
6413;BME280;3239;48.714;9.472;2023-03-15T04:20:29;98437.88;;;1.09;100.00
6413;BME280;3239;48.714;9.472;2023-03-15T04:22:59;98446.56;;;1.13;100.00
6413;BME280;3239;48.714;9.472;2023-03-15T04:25:26;98440.59;;;1.09;100.00
6413;BME280;3239;48.714;9.472;2023-03-15T04:27:52;98440.47;;;1.03;100.00
6413;BME280;3239;48.714;9.472;2023-03-15T04:30:30;98447.47;;;1.10;100.00
6413;BME280;3239;48.714;9.472;2023-03-15T04:32:56;98444.66;;;1.04;100.00
6413;BME280;3239;48.714;9.472;2023-03-15T04:35:30;98445.84;;;1.03;100.00
6413;BME280;3239;48.714;9.472;2023-03-15T04:37:57;98443.00;;;0.98;100.00
6413;BME280;3239;48.714;9.472;2023-03-15T04:40:25;98440.75;;;0.96;100.00
6413;BME280;3239;48.714;9.472;2023-03-15T04:42:52;98444.38;;;0.84;100.00
6413;BME280;3239;48.714;9.472;2023-03-15T04:45:26;98449.78;;;0.93;100.00
6413;BME280;3239;48.714;9.472;2023-03-15T04:47:53;98443.50;;;0.87;100.00
6413;BME280;3239;48.714;9.472;2023-03-15T04:50:21;98446.03;;;0.91;100.00
6413;BME280;3239;48.714;9.472;2023-03-15T04:52:48;98451.44;;;0.91;100.00
6413;BME280;3239;48.714;9.472;2023-03-15T04:55:14;98452.47;;;0.84;100.00
6413;BME280;3239;48.714;9.472;2023-03-15T04:57:41;98449.16;;;0.89;100.00
6413;BME280;3239;48.714;9.472;2023-03-15T05:00:08;98448.88;;;0.87;100.00
6413;BME280;3239;48.714;9.472;2023-03-15T05:02:38;98444.81;;;0.83;100.00
6413;BME280;3239;48.714;9.472;2023-03-15T05:05:08;98443.78;;;0.80;100.00
6413;BME280;3239;48.714;9.472;2023-03-15T05:07:35;98445.16;;;0.67;100.00
6413;BME280;3239;48.714;9.472;2023-03-15T05:10:01;98448.00;;;0.63;100.00
6413;BME280;3239;48.714;9.472;2023-03-15T05:12:28;98441.72;;;0.57;100.00
6413;BME280;3239;48.714;9.472;2023-03-15T05:14:54;98445.91;;;0.58;100.00
6413;BME280;3239;48.714;9.472;2023-03-15T05:17:19;98442.91;;;0.56;100.00
6413;BME280;3239;48.714;9.472;2023-03-15T05:19:48;98453.72;;;0.56;100.00
6413;BME280;3239;48.714;9.472;2023-03-15T05:22:14;98449.97;;;0.54;100.00
6413;BME280;3239;48.714;9.472;2023-03-15T05:24:40;98451.00;;;0.56;100.00
6413;BME280;3239;48.714;9.472;2023-03-15T05:27:06;98447.72;;;0.52;100.00
6413;BME280;3239;48.714;9.472;2023-03-15T05:29:31;98453.53;;;0.42;100.00
6413;BME280;3239;48.714;9.472;2023-03-15T05:31:57;98449.19;;;0.44;100.00
6413;BME280;3239;48.714;9.472;2023-03-15T05:34:23;98456.38;;;0.38;100.00
6413;BME280;3239;48.714;9.472;2023-03-15T05:36:52;98462.09;;;0.40;100.00
6413;BME280;3239;48.714;9.472;2023-03-15T05:39:18;98465.38;;;0.44;100.00
6413;BME280;3239;48.714;9.472;2023-03-15T05:41:44;98465.22;;;0.39;100.00
6413;BME280;3239;48.714;9.472;2023-03-15T05:44:10;98467.16;;;0.38;100.00
6413;BME280;3239;48.714;9.472;2023-03-15T05:46:35;98474.66;;;0.43;100.00
6413;BME280;3239;48.714;9.472;2023-03-15T05:49:01;98478.84;;;0.35;100.00
6413;BME280;3239;48.714;9.472;2023-03-15T05:51:28;98476.75;;;0.39;100.00
6413;BME280;3239;48.714;9.472;2023-03-15T05:53:54;98480.19;;;0.40;100.00
6413;BME280;3239;48.714;9.472;2023-03-15T05:56:20;98493.97;;;0.42;100.00
6413;BME280;3239;48.714;9.472;2023-03-15T05:58:45;98491.44;;;0.47;100.00
6413;BME280;3239;48.714;9.472;2023-03-15T06:01:11;98490.66;;;0.47;100.00
6413;BME280;3239;48.714;9.472;2023-03-15T06:03:37;98500.28;;;0.48;100.00
6413;BME280;3239;48.714;9.472;2023-03-15T06:06:02;98498.63;;;0.50;100.00
6413;BME280;3239;48.714;9.472;2023-03-15T06:08:29;98499.69;;;0.53;100.00
6413;BME280;3239;48.714;9.472;2023-03-15T06:10:55;98508.66;;;0.59;100.00
6413;BME280;3239;48.714;9.472;2023-03-15T06:13:21;98505.81;;;0.53;100.00
6413;BME280;3239;48.714;9.472;2023-03-15T06:15:47;98509.25;;;0.72;100.00
6413;BME280;3239;48.714;9.472;2023-03-15T06:18:13;98500.13;;;0.78;100.00
6413;BME280;3239;48.714;9.472;2023-03-15T06:20:48;98503.41;;;1.00;100.00
6413;BME280;3239;48.714;9.472;2023-03-15T06:23:14;98501.44;;;1.19;100.00
6413;BME280;3239;48.714;9.472;2023-03-15T06:25:41;98507.50;;;1.46;100.00
6413;BME280;3239;48.714;9.472;2023-03-15T06:28:08;98505.94;;;1.72;100.00
6413;BME280;3239;48.714;9.472;2023-03-15T06:30:34;98519.09;;;2.12;100.00
6413;BME280;3239;48.714;9.472;2023-03-15T06:33:00;98524.28;;;2.48;100.00
6413;BME280;3239;48.714;9.472;2023-03-15T06:35:28;98513.06;;;2.64;100.00
6413;BME280;3239;48.714;9.472;2023-03-15T06:37:54;98508.53;;;2.84;100.00
6413;BME280;3239;48.714;9.472;2023-03-15T06:40:20;98485.34;;;3.36;100.00
6413;BME280;3239;48.714;9.472;2023-03-15T06:42:45;98470.91;;;3.73;100.00
6413;BME280;3239;48.714;9.472;2023-03-15T06:45:42;98437.59;;;3.53;100.00
6413;BME280;3239;48.714;9.472;2023-03-15T06:48:08;98418.50;;;3.96;100.00
6413;BME280;3239;48.714;9.472;2023-03-15T06:50:34;98409.28;;;4.28;100.00
6413;BME280;3239;48.714;9.472;2023-03-15T06:53:00;98391.19;;;4.00;100.00
6413;BME280;3239;48.714;9.472;2023-03-15T06:55:33;98374.81;;;4.54;100.00
6413;BME280;3239;48.714;9.472;2023-03-15T06:57:59;98354.25;;;3.62;100.00
6413;BME280;3239;48.714;9.472;2023-03-15T07:00:27;98349.91;;;2.43;100.00
6413;BME280;3239;48.714;9.472;2023-03-15T07:02:53;98354.94;;;3.77;100.00
6413;BME280;3239;48.714;9.472;2023-03-15T07:05:19;98353.50;;;3.62;100.00
6413;BME280;3239;48.714;9.472;2023-03-15T07:07:45;98357.88;;;4.39;100.00
6413;BME280;3239;48.714;9.472;2023-03-15T07:10:11;98348.38;;;5.06;100.00
6413;BME280;3239;48.714;9.472;2023-03-15T07:12:36;98333.31;;;4.03;100.00
6413;BME280;3239;48.714;9.472;2023-03-15T07:15:09;98341.66;;;3.99;100.00
6413;BME280;3239;48.714;9.472;2023-03-15T07:17:35;98341.09;;;4.35;100.00
6413;BME280;3239;48.714;9.472;2023-03-15T07:20:01;98340.09;;;3.93;100.00
6413;BME280;3239;48.714;9.472;2023-03-15T07:22:26;98336.00;;;3.43;100.00
6413;BME280;3239;48.714;9.472;2023-03-15T07:24:52;98352.69;;;4.92;100.00
6413;BME280;3239;48.714;9.472;2023-03-15T07:27:18;98345.63;;;5.79;100.00
6413;BME280;3239;48.714;9.472;2023-03-15T07:29:43;98336.94;;;5.33;100.00
6413;BME280;3239;48.714;9.472;2023-03-15T07:32:09;98327.13;;;4.22;100.00
6413;BME280;3239;48.714;9.472;2023-03-15T07:34:35;98326.06;;;4.91;100.00
6413;BME280;3239;48.714;9.472;2023-03-15T07:37:01;98325.63;;;3.96;100.00
6413;BME280;3239;48.714;9.472;2023-03-15T07:39:26;98329.53;;;4.66;100.00
6413;BME280;3239;48.714;9.472;2023-03-15T07:41:53;98335.06;;;5.86;100.00
6413;BME280;3239;48.714;9.472;2023-03-15T07:44:19;98337.25;;;6.63;100.00
6413;BME280;3239;48.714;9.472;2023-03-15T07:46:45;98321.38;;;7.55;100.00
6413;BME280;3239;48.714;9.472;2023-03-15T07:49:11;98309.16;;;7.72;100.00
6413;BME280;3239;48.714;9.472;2023-03-15T07:51:37;98298.03;;;6.00;100.00
6413;BME280;3239;48.714;9.472;2023-03-15T07:54:03;98298.25;;;8.29;100.00
6413;BME280;3239;48.714;9.472;2023-03-15T07:56:29;98297.41;;;6.65;100.00
6413;BME280;3239;48.714;9.472;2023-03-15T07:58:55;98309.72;;;6.28;100.00
6413;BME280;3239;48.714;9.472;2023-03-15T08:01:21;98306.16;;;7.87;100.00
6413;BME280;3239;48.714;9.472;2023-03-15T08:03:47;98298.16;;;6.60;100.00
6413;BME280;3239;48.714;9.472;2023-03-15T08:06:13;98295.91;;;7.19;100.00
6413;BME280;3239;48.714;9.472;2023-03-15T08:08:39;98304.50;;;7.62;100.00
6413;BME280;3239;48.714;9.472;2023-03-15T08:11:05;98300.78;;;6.05;100.00
6413;BME280;3239;48.714;9.472;2023-03-15T08:13:31;98305.03;;;4.86;100.00
6413;BME280;3239;48.714;9.472;2023-03-15T08:15:57;98312.66;;;6.13;100.00
6413;BME280;3239;48.714;9.472;2023-03-15T08:18:23;98300.63;;;6.53;100.00
6413;BME280;3239;48.714;9.472;2023-03-15T08:20:48;98310.97;;;7.48;100.00
6413;BME280;3239;48.714;9.472;2023-03-15T08:23:14;98297.13;;;7.35;100.00
6413;BME280;3239;48.714;9.472;2023-03-15T08:25:42;98286.03;;;6.72;100.00
6413;BME280;3239;48.714;9.472;2023-03-15T08:28:09;98289.50;;;6.89;100.00
6413;BME280;3239;48.714;9.472;2023-03-15T08:30:36;98283.56;;;6.96;100.00
6413;BME280;3239;48.714;9.472;2023-03-15T08:33:02;98295.16;;;6.31;100.00
6413;BME280;3239;48.714;9.472;2023-03-15T08:35:29;98301.34;;;6.48;100.00
6413;BME280;3239;48.714;9.472;2023-03-15T08:37:57;98293.78;;;5.40;100.00
6413;BME280;3239;48.714;9.472;2023-03-15T08:40:23;98297.06;;;5.08;100.00
6413;BME280;3239;48.714;9.472;2023-03-15T08:42:49;98299.41;;;6.81;100.00
6413;BME280;3239;48.714;9.472;2023-03-15T08:45:15;98294.38;;;8.89;100.00
6413;BME280;3239;48.714;9.472;2023-03-15T08:47:42;98302.84;;;7.99;100.00
6413;BME280;3239;48.714;9.472;2023-03-15T08:50:15;98287.25;;;7.21;100.00
6413;BME280;3239;48.714;9.472;2023-03-15T08:52:42;98283.44;;;5.97;100.00
6413;BME280;3239;48.714;9.472;2023-03-15T08:55:10;98286.53;;;6.65;100.00
6413;BME280;3239;48.714;9.472;2023-03-15T08:57:40;98288.63;;;6.01;100.00
6413;BME280;3239;48.714;9.472;2023-03-15T09:00:06;98288.72;;;6.23;100.00
6413;BME280;3239;48.714;9.472;2023-03-15T09:02:33;98286.16;;;5.92;100.00
6413;BME280;3239;48.714;9.472;2023-03-15T09:04:59;98293.34;;;6.06;100.00
6413;BME280;3239;48.714;9.472;2023-03-15T09:07:24;98290.13;;;6.07;100.00
6413;BME280;3239;48.714;9.472;2023-03-15T09:09:50;98290.97;;;6.52;100.00
6413;BME280;3239;48.714;9.472;2023-03-15T09:12:19;98295.69;;;7.06;100.00
6413;BME280;3239;48.714;9.472;2023-03-15T09:14:46;98290.41;;;7.52;100.00
6413;BME280;3239;48.714;9.472;2023-03-15T09:17:12;98294.22;;;8.41;100.00
6413;BME280;3239;48.714;9.472;2023-03-15T09:19:38;98299.59;;;8.87;100.00
6413;BME280;3239;48.714;9.472;2023-03-15T09:22:05;98296.84;;;8.58;100.00
6413;BME280;3239;48.714;9.472;2023-03-15T09:24:31;98300.41;;;6.89;100.00
6413;BME280;3239;48.714;9.472;2023-03-15T09:26:57;98297.16;;;6.47;100.00
6413;BME280;3239;48.714;9.472;2023-03-15T09:29:23;98317.81;;;6.00;100.00
6413;BME280;3239;48.714;9.472;2023-03-15T09:31:49;98317.94;;;6.39;100.00
6413;BME280;3239;48.714;9.472;2023-03-15T09:34:14;98315.53;;;5.93;100.00
6413;BME280;3239;48.714;9.472;2023-03-15T09:36:40;98325.41;;;5.43;100.00
6413;BME280;3239;48.714;9.472;2023-03-15T09:39:06;98311.09;;;5.43;100.00
6413;BME280;3239;48.714;9.472;2023-03-15T09:41:48;98314.44;;;5.69;100.00
6413;BME280;3239;48.714;9.472;2023-03-15T09:44:49;98319.09;;;6.16;100.00
6413;BME280;3239;48.714;9.472;2023-03-15T09:48:03;98314.94;;;6.31;100.00
6413;BME280;3239;48.714;9.472;2023-03-15T09:50:44;98312.72;;;6.30;100.00
6413;BME280;3239;48.714;9.472;2023-03-15T09:53:34;98310.16;;;5.99;100.00
6413;BME280;3239;48.714;9.472;2023-03-15T09:56:19;98318.13;;;6.24;100.00
6413;BME280;3239;48.714;9.472;2023-03-15T09:58:49;98325.50;;;6.07;100.00
6413;BME280;3239;48.714;9.472;2023-03-15T10:01:17;98314.69;;;6.24;100.00
6413;BME280;3239;48.714;9.472;2023-03-15T10:03:52;98321.34;;;6.28;100.00
6413;BME280;3239;48.714;9.472;2023-03-15T10:08:52;98328.09;;;7.32;100.00
6413;BME280;3239;48.714;9.472;2023-03-15T10:15:40;98317.81;;;7.76;100.00
6413;BME280;3239;48.714;9.472;2023-03-15T10:20:28;98326.63;;;7.14;100.00
6413;BME280;3239;48.714;9.472;2023-03-15T10:23:10;98327.47;;;6.01;100.00
6413;BME280;3239;48.714;9.472;2023-03-15T10:25:39;98323.59;;;6.35;100.00
6413;BME280;3239;48.714;9.472;2023-03-15T10:28:28;98326.66;;;5.90;100.00
6413;BME280;3239;48.714;9.472;2023-03-15T10:30:59;98319.34;;;5.59;100.00
6413;BME280;3239;48.714;9.472;2023-03-15T10:33:32;98323.59;;;5.71;100.00
6413;BME280;3239;48.714;9.472;2023-03-15T10:36:00;98316.88;;;5.61;100.00
6413;BME280;3239;48.714;9.472;2023-03-15T10:38:29;98311.91;;;5.54;100.00
6413;BME280;3239;48.714;9.472;2023-03-15T10:40:58;98318.78;;;5.92;100.00
6413;BME280;3239;48.714;9.472;2023-03-15T10:43:28;98312.34;;;5.95;100.00
6413;BME280;3239;48.714;9.472;2023-03-15T10:46:00;98315.38;;;6.13;100.00
6413;BME280;3239;48.714;9.472;2023-03-15T10:49:11;98312.13;;;6.09;100.00
6413;BME280;3239;48.714;9.472;2023-03-15T10:51:27;98319.88;;;6.27;100.00
6413;BME280;3239;48.714;9.472;2023-03-15T10:54:02;98316.09;;;6.08;100.00
6413;BME280;3239;48.714;9.472;2023-03-15T10:56:36;98315.94;;;6.34;100.00
6413;BME280;3239;48.714;9.472;2023-03-15T10:59:02;98310.78;;;6.63;100.00
6413;BME280;3239;48.714;9.472;2023-03-15T11:01:38;98317.22;;;6.88;100.00
6413;BME280;3239;48.714;9.472;2023-03-15T11:04:22;98306.84;;;6.86;100.00
6413;BME280;3239;48.714;9.472;2023-03-15T11:09:26;98306.31;;;6.60;100.00
6413;BME280;3239;48.714;9.472;2023-03-15T11:12:01;98309.94;;;7.56;100.00
6413;BME280;3239;48.714;9.472;2023-03-15T11:14:38;98314.25;;;6.86;100.00
6413;BME280;3239;48.714;9.472;2023-03-15T11:17:14;98305.81;;;7.22;100.00
6413;BME280;3239;48.714;9.472;2023-03-15T11:19:50;98300.16;;;7.04;100.00
6413;BME280;3239;48.714;9.472;2023-03-15T11:22:16;98286.75;;;7.11;100.00
6413;BME280;3239;48.714;9.472;2023-03-15T11:24:41;98299.75;;;7.62;100.00
6413;BME280;3239;48.714;9.472;2023-03-15T11:27:14;98294.69;;;7.09;100.00
6413;BME280;3239;48.714;9.472;2023-03-15T11:29:47;98280.00;;;8.08;100.00
6413;BME280;3239;48.714;9.472;2023-03-15T11:32:20;98293.09;;;7.63;100.00
6413;BME280;3239;48.714;9.472;2023-03-15T11:37:37;98277.75;;;7.44;100.00
6413;BME280;3239;48.714;9.472;2023-03-15T11:40:24;98275.53;;;7.53;100.00
6413;BME280;3239;48.714;9.472;2023-03-15T11:43:00;98271.41;;;7.14;100.00
6413;BME280;3239;48.714;9.472;2023-03-15T11:45:41;98284.03;;;6.45;100.00
6413;BME280;3239;48.714;9.472;2023-03-15T11:48:38;98288.94;;;6.14;100.00
6413;BME280;3239;48.714;9.472;2023-03-15T11:51:07;98283.00;;;6.21;100.00
6413;BME280;3239;48.714;9.472;2023-03-15T11:53:50;98282.56;;;6.39;100.00
6413;BME280;3239;48.714;9.472;2023-03-15T11:56:27;98278.09;;;6.58;100.00
6413;BME280;3239;48.714;9.472;2023-03-15T12:01:33;98282.78;;;6.35;100.00
6413;BME280;3239;48.714;9.472;2023-03-15T12:06:55;98273.16;;;6.40;100.00
6413;BME280;3239;48.714;9.472;2023-03-15T12:12:33;98272.69;;;6.63;100.00
6413;BME280;3239;48.714;9.472;2023-03-15T12:18:03;98267.22;;;6.69;100.00
6413;BME280;3239;48.714;9.472;2023-03-15T12:23:38;98266.47;;;6.74;100.00
6413;BME280;3239;48.714;9.472;2023-03-15T12:26:26;98278.13;;;6.74;100.00
6413;BME280;3239;48.714;9.472;2023-03-15T12:29:02;98286.75;;;6.67;100.00
6413;BME280;3239;48.714;9.472;2023-03-15T12:35:05;98302.31;;;6.28;100.00
6413;BME280;3239;48.714;9.472;2023-03-15T12:51:02;98302.59;;;6.58;100.00
6413;BME280;3239;48.714;9.472;2023-03-15T12:56:46;98291.72;;;7.07;100.00
6413;BME280;3239;48.714;9.472;2023-03-15T13:02:34;98289.72;;;7.19;100.00
6413;BME280;3239;48.714;9.472;2023-03-15T13:11:42;98279.97;;;7.56;100.00
6413;BME280;3239;48.714;9.472;2023-03-15T13:14:58;98280.66;;;7.73;100.00
6413;BME280;3239;48.714;9.472;2023-03-15T13:17:48;98278.50;;;7.50;100.00
6413;BME280;3239;48.714;9.472;2023-03-15T13:23:31;98284.53;;;7.04;100.00
6413;BME280;3239;48.714;9.472;2023-03-15T13:28:40;98296.44;;;7.01;100.00
6413;BME280;3239;48.714;9.472;2023-03-15T13:31:30;98301.13;;;6.95;100.00
6413;BME280;3239;48.714;9.472;2023-03-15T13:34:19;98315.00;;;6.64;100.00
6413;BME280;3239;48.714;9.472;2023-03-15T13:36:59;98333.03;;;6.51;100.00
6413;BME280;3239;48.714;9.472;2023-03-15T13:39:30;98330.06;;;6.43;100.00
6413;BME280;3239;48.714;9.472;2023-03-15T13:42:17;98322.84;;;6.24;100.00
6413;BME280;3239;48.714;9.472;2023-03-15T13:44:44;98306.50;;;6.29;100.00
6413;BME280;3239;48.714;9.472;2023-03-15T13:47:19;98313.75;;;6.54;100.00
6413;BME280;3239;48.714;9.472;2023-03-15T13:49:50;98319.47;;;6.78;100.00
6413;BME280;3239;48.714;9.472;2023-03-15T13:52:17;98319.47;;;6.78;100.00
6413;BME280;3239;48.714;9.472;2023-03-15T13:54:43;98322.34;;;6.31;100.00
6413;BME280;3239;48.714;9.472;2023-03-15T13:57:17;98327.31;;;6.38;100.00
6413;BME280;3239;48.714;9.472;2023-03-15T13:59:59;98326.56;;;6.32;100.00
6413;BME280;3239;48.714;9.472;2023-03-15T14:02:59;98332.22;;;6.17;100.00
6413;BME280;3239;48.714;9.472;2023-03-15T14:05:32;98327.06;;;6.36;100.00
6413;BME280;3239;48.714;9.472;2023-03-15T14:08:06;98329.28;;;6.26;100.00
6413;BME280;3239;48.714;9.472;2023-03-15T14:10:41;98326.53;;;6.15;100.00
6413;BME280;3239;48.714;9.472;2023-03-15T14:16:06;98350.25;;;6.15;100.00
6413;BME280;3239;48.714;9.472;2023-03-15T14:18:40;98337.53;;;5.84;100.00
6413;BME280;3239;48.714;9.472;2023-03-15T14:23:45;98351.53;;;5.77;100.00
6413;BME280;3239;48.714;9.472;2023-03-15T14:26:26;98354.06;;;5.81;100.00
6413;BME280;3239;48.714;9.472;2023-03-15T14:29:06;98349.75;;;5.69;100.00
6413;BME280;3239;48.714;9.472;2023-03-15T14:31:47;98352.34;;;5.83;100.00
6413;BME280;3239;48.714;9.472;2023-03-15T14:36:59;98357.03;;;5.83;100.00
6413;BME280;3239;48.714;9.472;2023-03-15T14:39:41;98362.56;;;6.05;100.00
6413;BME280;3239;48.714;9.472;2023-03-15T14:42:09;98364.22;;;6.66;100.00
6413;BME280;3239;48.714;9.472;2023-03-15T14:44:36;98339.28;;;10.56;100.00
6413;BME280;3239;48.714;9.472;2023-03-15T14:47:14;98309.00;;;13.93;100.00
6413;BME280;3239;48.714;9.472;2023-03-15T14:49:41;98302.81;;;13.64;100.00
6413;BME280;3239;48.714;9.472;2023-03-15T14:52:10;98303.75;;;10.69;100.00
6413;BME280;3239;48.714;9.472;2023-03-15T14:54:36;98303.25;;;10.15;100.00